Flight Track Log - Related Links

Times and Time Zones

All times are in EDT time to prevent confusion due to time zone crossing. See the RPA3253 flight status page for this flight to view local times or setup timezone preferences in your user account.

Time Position Orientation Groundspeed Altitude Reporting Facility
EDT Latitude Longitude Course Direction KTS MPH feet Rate Location/Type
Fri 09:02:36 PM 42.7653 -73.8089 180° South 138 159 1,400  Level Boston Center
Fri 09:03:31 PM 42.8108 -73.8297 341° North 194 223 3,800 2,949 Climbing Boston Center
Fri 09:04:34 PM 42.8542 -73.8675 327° Northwest 228 262 7,200 3,532 Climbing Boston Center
Fri 09:05:35 PM 42.9119 -73.9200 326° Northwest 233 268 11,100 3,700 Climbing Boston Center
Fri 09:06:00 PM 42.3857 -74.1955 170° South  Level Estimated
Fri 09:06:34 PM 42.9717 -73.9725 327° Northwest 233 268 14,600  Level Boston Center
Fri 09:07:00 PM 42.3129 -74.2737 180° South  Level Estimated
Fri 09:07:34 PM 42.9872 -74.0467 286° West 223 257 17,000  Level Boston Center
Fri 09:08:35 PM 42.9056 -74.0728 193° South 205 236 18,400 1,240 Climbing Boston Center
Fri 09:09:35 PM 42.8122 -74.0419 166° South 302 348 19,500 1,700 Climbing Boston Center
Fri 09:10:35 PM 42.6981 -73.9994 165° South 385 443 21,800 2,231 Climbing Boston Center
Fri 09:11:36 PM 42.5750 -74.0217 188° South 398 458 24,000 1,866 Climbing Boston Center
Fri 09:12:34 PM 42.4558 -74.0469 189° South 418 481 25,500 1,525 Climbing Boston Center
Fri 09:13:34 PM 42.3281 -74.0744 189° South 439 505 27,000 1,835 Climbing Boston Center
Fri 09:14:35 PM 42.2028 -74.1050 190° South 455 524 29,200 2,083 Climbing Boston Center
Fri 09:15:35 PM 42.0794 -74.1325 189° South 455 524 31,200 1,967 Climbing Boston Center
Fri 09:16:37 PM 41.9600 -74.1572 189° South 455 524 33,200 789 Climbing Boston Center
Fri 09:19:08 PM 41.6569 -74.2167 188° South 444 511 34,000 229 Climbing New York Center
Fri 09:20:07 PM 41.5228 -74.2456 189° South 453 521 34,000  Level New York Center
Fri 09:21:06 PM 41.3947 -74.2778 191° South 453 521 34,000  Level New York Center
Fri 09:22:08 PM 41.2800 -74.3600 208° Southwest 459 528 34,000  Level New York Center
Fri 09:23:06 PM 41.1833 -74.4569 217° Southwest 452 520 34,000  Level New York Center
Fri 09:24:09 PM 41.0822 -74.5561 216° Southwest 452 520 34,000  Level New York Center
Fri 09:25:06 PM 40.9811 -74.6519 216° Southwest 452 520 34,000  Level New York Center
Fri 09:26:06 PM 40.8822 -74.7481 216° Southwest 452 520 34,000  Level New York Center
Fri 09:27:07 PM 40.7828 -74.8492 218° Southwest 452 520 34,000  Level New York Center
Fri 09:28:08 PM 40.6836 -74.9444 216° Southwest 452 520 34,000  Level New York Center
Fri 09:29:08 PM 40.5844 -75.0394 216° Southwest 452 520 34,000  Level New York Center
Fri 09:30:09 PM 40.4872 -75.1344 217° Southwest 452 520 34,000  Level New York Center
Fri 09:31:06 PM 40.3856 -75.2342 217° Southwest 452 520 34,000  Level New York Center
Fri 09:32:07 PM 40.2858 -75.3311 217° Southwest 452 520 34,000  Level New York Center
Fri 09:33:06 PM 40.1800 -75.4303 216° Southwest 457 526 34,000  Level New York Center
Fri 09:34:06 PM 40.0781 -75.5292 217° Southwest 457 526 34,000  Level New York Center
Fri 09:35:06 PM 39.9919 -75.6453 226° Southwest 457 526 34,000  Level New York Center
Fri 09:36:08 PM 39.9097 -75.7667 229° Southwest 452 520 34,000  Level New York Center
Fri 09:37:06 PM 39.8294 -75.8908 230° Southwest 452 520 34,000  Level New York Center
Fri 09:38:06 PM 39.7447 -76.0114 228° Southwest 452 520 34,000  Level New York Center
Fri 09:39:44 PM 39.6183 -76.2031 229° Southwest 439 505 34,000  Level Washington Center
Fri 09:40:41 PM 39.5342 -76.3289 229° Southwest 449 517 34,000  Level Washington Center
Fri 09:41:42 PM 39.4522 -76.4489 229° Southwest 460 529 34,000  Level Washington Center
Fri 09:42:43 PM 39.3658 -76.5714 228° Southwest 466 536 34,000  Level Washington Center
Fri 09:43:44 PM 39.2836 -76.6908 228° Southwest 461 531 34,000  Level Washington Center
Fri 09:44:42 PM 39.2011 -76.8128 229° Southwest 461 531 34,000  Level Washington Center
Fri 09:45:43 PM 39.1186 -76.9347 229° Southwest 456 525 34,000  Level Washington Center
Fri 09:46:44 PM 39.0339 -77.0506 227° Southwest 456 525 34,000  Level Washington Center
Fri 09:47:44 PM 38.9367 -77.1556 220° Southwest 456 525 34,000  Level Washington Center
Fri 09:48:42 PM 38.8372 -77.2653 221° Southwest 461 531 34,000  Level Washington Center
Fri 09:49:43 PM 38.7397 -77.3694 220° Southwest 466 536 34,000  Level Washington Center
Fri 09:50:44 PM 38.6442 -77.4764 221° Southwest 466 536 34,000  Level Washington Center
Fri 09:51:43 PM 38.5447 -77.5825 220° Southwest 466 536 34,000  Level Washington Center
Fri 09:52:43 PM 38.4531 -77.6861 222° Southwest 461 531 34,000  Level Washington Center
Fri 09:53:42 PM 38.3553 -77.7892 220° Southwest 461 531 34,000  Level Washington Center
Fri 09:54:43 PM 38.2597 -77.8897 220° Southwest 461 531 34,000  Level Washington Center
Fri 09:55:44 PM 38.1831 -77.9717 220° Southwest 461 531 34,000  Level Washington Center
Fri 09:56:42 PM 38.0892 -78.0744 221° Southwest 461 531 34,000  Level Washington Center
Fri 09:57:42 PM 37.9950 -78.1897 224° Southwest 456 525 34,000  Level Washington Center
Fri 09:58:43 PM 37.9133 -78.3028 228° Southwest 441 507 34,000  Level Washington Center
Fri 09:59:44 PM 37.8333 -78.4208 229° Southwest 441 507 34,000  Level Washington Center
Fri 10:00:42 PM 37.7514 -78.5333 227° Southwest 441 507 34,000 -407 Level Washington Center
Fri 10:01:42 PM 37.6628 -78.6611 229° Southwest 446 513 33,200 -800 Descending Washington Center
Fri 10:02:42 PM 37.5803 -78.7783 228° Southwest 452 520 32,400 -595 Descending Washington Center
Fri 10:03:43 PM 37.4978 -78.8953 228° Southwest 452 520 32,000 -393 Descending Washington Center
Fri 10:04:44 PM 37.4153 -79.0119 228° Southwest 452 520 31,600 -655 Descending Washington Center
Fri 10:05:42 PM 37.3306 -79.1283 228° Southwest 451 519 30,700 -958 Descending Washington Center
Fri 10:06:43 PM 37.2525 -79.2292 226° Southwest 451 519 29,700 -950 Descending Washington Center
Fri 10:07:42 PM 37.1517 -79.3208 216° Southwest 451 519 28,800 -843 Descending Washington Center
Fri 10:08:44 PM 37.0444 -79.4094 213° Southwest 456 525 28,000 -400 Descending Washington Center
Fri 10:09:42 PM 36.9417 -79.4978 214° Southwest 461 531 28,000  Level Washington Center
Fri 10:11:42 PM 36.7169 -79.6753 212° Southwest 495 570 28,000  Level Atlanta Center
Fri 10:12:42 PM 36.6117 -79.7636 214° Southwest 475 547 28,000 -600 Level Atlanta Center
Fri 10:13:42 PM 36.5061 -79.8494 213° Southwest 465 535 26,800 -1,900 Descending Atlanta Center
Fri 10:14:42 PM 36.4125 -79.9214 212° Southwest 451 519 24,200 -2,350 Descending Atlanta Center
Fri 10:15:42 PM 36.3192 -80.0008 214° Southwest 433 498 22,100 -1,100 Descending Atlanta Center
Fri 10:16:42 PM 36.2239 -80.0828 215° Southwest 427 491 22,000 -400 Descending Atlanta Center
Fri 10:17:42 PM 36.1286 -80.1647 215° Southwest 422 486 21,300 -1,550 Descending Atlanta Center
Fri 10:18:42 PM 36.0289 -80.2492 214° Southwest 412 474 18,900 -2,182 Descending Atlanta Center
Fri 10:19:32 PM 35.9517 -80.3167 215° Southwest 400 460 17,300 -1,909 Descending Atlanta Center
Fri 10:20:32 PM 35.8725 -80.3844 215° Southwest 324 373 15,400 -1,938 Descending Atlanta Center
Fri 10:21:42 PM 35.7992 -80.4467 215° Southwest 324 373 13,100 -1,938 Descending Atlanta Center
Fri 10:22:42 PM 35.7383 -80.5108 221° Southwest 298 343 11,200 -2,050 Descending Atlanta Center
Fri 10:23:42 PM 35.6906 -80.5894 233° Southwest 285 328 9,000 -2,050 Descending Atlanta Center
Fri 10:24:42 PM 35.6425 -80.6631 231° Southwest 291 335 7,100 -1,850 Descending Atlanta Center
Fri 10:25:42 PM 35.5967 -80.7389 233° Southwest 286 329 5,300 -1,550 Descending Atlanta Center
Fri 10:26:42 PM 35.5508 -80.8175 234° Southwest 274 315 4,000 -650 Descending Atlanta Center
Fri 10:27:42 PM 35.5089 -80.8881 234° Southwest 264 304 4,000  Level Atlanta Center
Fri 10:28:42 PM 35.4581 -80.9408 220° Southwest 256 295 4,000 -298 Level Atlanta Center
Fri 10:30:03 PM 35.3711 -80.9697 195° South 228 262 3,300 -622 Descending Atlanta Center
Fri 10:30:57 PM 35.3256 -80.9789 189° South 168 193 2,600 -744 Descending Atlanta Center
Fri 10:32:04 PM 35.2817 -80.9756 176° South 133 153 1,800 -627 Descending Atlanta Center
Fri 10:33:11 PM 35.2461 -80.9717 175° South 109 125 1,200 -537 Descending Atlanta Center

Login

Don't have an account? Register now (free) for customized features, flight alerts, and more!